Terminal Aerodrome Forecast
Issued by NWS

Home | Current Version | Previous Version | Graphics & Text | Print | Product List | Glossary On
Versions: 1 2 3 4 5 6 7 8 9 10 11 12 13 14 15 16 17 18 19 20 21 22 23 24 25 26 27 28 29 30 31 32 33 34 35 36
000
FTUS43 KLOT 010900 AAA
TAFORD
TAF AMD
KORD 010938Z 0110/0212 06011KT 3/4SM -SN OVC005
     FM011400 05017G22KT 3/4SM -SN OVC003
     FM012000 04020G32KT 1/2SM SN BLSN OVC004
      TEMPO 0120/0124 1/4SM SN BLSN
     FM020200 02020G30KT 1 1/2SM -SN BLSN OVC005
     FM020600 35016G25KT 3SM BLSN OVC015=

USA.gov is the U.S. government's official web portal to all federal, state and local government web resources and services.